Naples, FL

2:08 AM EST on December 08, 2016 (GMT -0500)
Copper Cove | | Change Station

Elev 20 ft 26.04 °N, 81.68 °W | Updated 9 seconds ago

Partly Cloudy
Partly Cloudy
70.2 °F
Feels Like 75 °F
N
1.8
Wind Variable Wind from East
Gusts 2.5 mph

Today
High -- | Low -- °F
--% Chance of Precip.
Yesterday
High -- | Low -- °F
Precip. -- in
Pressure 30.07 in
Visibility 10.0 miles
Clouds Few 7000 ft
Mostly Cloudy 8000 ft
Mostly Cloudy 10000 ft
Heat Index 75 °F
Dew Point 59 °F
Humidity 67%
Rainfall 0.00 in
Snow Depth Not available.
7:02 AM 5:36 PM
First Quarter, 60% visible
METAR KMKY 080655Z AUTO 02005KT 10SM FEW070 BKN080 BKN100 21/17 A3007 RMK AO1
Pressure 30.07 in
Visibility 10.0 miles
Clouds Few 7000 ft
Mostly Cloudy 8000 ft
Mostly Cloudy 10000 ft
Heat Index 75 °F
Dew Point 59 °F
Humidity 67%
Rainfall 0.00 in
Snow Depth Not available.
7:02 AM 5:36 PM
First Quarter, 60% visible
METAR KMKY 080655Z AUTO 02005KT 10SM FEW070 BKN080 BKN100 21/17 A3007 RMK AO1

10-Day Weather Forecast

Almanac

Astronomy

Dec. 08, 2016 Rise Set
Actual Time
Civil Twilight
Nautical Twilight
Astronomical Twilight
Moon
Length of Visible Light
Length of Day
Tomorrow will be .
, % of the Moon is Illuminated

Today's Extremes

State Highs State Lows

Community

WunderPhotos

Upload Photos

1,956,259 photos uploaded!

WunderBlog® & News

Nearby

Air Quality

  Air Quality AQ Index Pollutant
Not available.

Snow Depth

Station Depth Elevation

Earthquake Activity

City Distance Mag. Time & Date
Minimum magnitude displayed is 2.5.

Coastal Water Temperatures

Place Temperature

Stations

Nearby Weather Stations

Station Location Temp. Windchill Dew Point Humidity Wind Precip. Elev Updated Type
                   

Watches & Warnings

There are currently no watches in effect.